Terminal Aerodrome Forecast
Issued by NWS

Home | Current Version | Previous Version | Graphics & Text | Print | Product List | Glossary On
Versions: 1 2 3 4 5 6 7 8 9 10 11 12 13 14 15 16 17 18 19
000
FTUS42 KMHX 250533
TAFOAJ
TAF
KOAJ 250533Z 2506/2606 19005KT P6SM BKN030 BKN140
     FM250800 VRB04KT P6SM SCT015 BKN070
     FM251600 23008KT P6SM VCTS BKN070CB
     FM252000 27008KT P6SM BKN100
      AMD LTD TO CLD VIS AND WIND=

USA.gov is the U.S. government's official web portal to all federal, state and local government web resources and services.